createdAt,value
2022-10-30T11:19:45.119Z,26
2022-10-30T13:47:34.885Z,24.7
2022-10-30T13:48:40.082Z,24.5
2022-10-30T13:49:46.248Z,24.3
2022-10-30T13:50:52.418Z,24.2
2022-10-30T13:51:58.589Z,23.9
2022-10-30T13:53:04.757Z,23.6
2022-10-30T13:54:10.930Z,23.3
2022-10-30T13:55:17.160Z,23.3
2022-10-30T13:56:23.286Z,23.6
2022-10-30T13:57:29.442Z,23.9
2022-10-30T13:58:35.599Z,24.1
2022-10-30T13:59:41.775Z,24.7
2022-10-30T14:00:47.953Z,25.3
2022-10-30T14:01:54.110Z,25.8
2022-10-30T14:03:00.298Z,26.5
2022-10-30T14:04:06.491Z,27.1
2022-10-30T14:05:12.615Z,27.3
2022-10-30T14:06:18.798Z,27.8
2022-10-30T14:07:24.953Z,28.1
2022-10-30T14:08:31.142Z,28.5
2022-10-30T14:09:36.367Z,28.7
2022-10-30T14:10:41.503Z,28.9
2022-10-30T14:11:47.713Z,29.1
2022-10-30T14:12:53.870Z,29.2
2022-10-30T14:14:00.026Z,29.3
2022-10-30T14:15:06.234Z,29.4
2022-10-30T14:16:12.367Z,29.5
2022-10-30T14:17:18.543Z,29.6
2022-10-30T14:18:24.722Z,29.6
2022-10-30T14:19:30.873Z,29.5
2022-10-30T14:20:37.050Z,29.3
2022-10-30T14:21:43.227Z,29
2022-10-30T14:22:49.484Z,28.7
2022-10-30T14:23:55.536Z,28.3
2022-10-30T14:25:00.728Z,27.9
2022-10-30T14:26:06.921Z,27.4
2022-10-30T14:27:13.068Z,27
2022-10-30T14:28:19.277Z,26.6
2022-10-30T14:29:25.406Z,25.9
2022-10-30T14:31:37.750Z,24.5
2022-10-30T14:32:43.914Z,23.8
2022-10-30T14:33:50.138Z,23.2
2022-10-30T14:34:55.324Z,22.7
2022-10-30T14:36:00.472Z,22.1
2022-10-30T14:37:06.640Z,21.7
2022-10-30T14:38:12.810Z,21.4
2022-10-30T14:39:18.973Z,21
2022-10-30T14:40:25.144Z,20.7
2022-10-30T14:41:31.337Z,20.6
2022-10-30T14:42:37.537Z,20.4
2022-10-30T14:43:43.664Z,20.3
2022-10-30T14:45:55.989Z,20.1
2022-10-30T14:47:02.155Z,20
2022-10-30T14:48:08.349Z,19.9
2022-10-30T14:49:14.498Z,19.8
2022-10-30T14:50:19.688Z,19.6
2022-10-30T14:51:25.977Z,19.5
2022-10-30T14:52:32.021Z,19.5
2022-10-30T14:53:38.248Z,19.3
2022-10-30T14:54:44.376Z,19.2
2022-10-30T14:55:50.533Z,19.1
2022-10-30T14:56:56.798Z,19
2022-10-30T14:58:02.895Z,18.9
2022-10-30T14:59:08.067Z,18.8
2022-10-30T15:00:13.261Z,18.7
2022-10-30T15:01:19.423Z,18.6
2022-10-30T15:02:25.669Z,18.6
2022-10-30T15:03:31.782Z,18.5
2022-10-30T15:04:37.988Z,18.4
2022-10-30T15:05:44.111Z,18.4
2022-10-30T15:06:50.262Z,18.3
2022-10-30T15:07:56.432Z,18.2
2022-10-30T15:09:02.658Z,18.2
2022-10-30T15:10:08.879Z,18.1
2022-10-30T15:11:15.001Z,18.1
2022-10-30T15:12:21.116Z,18
2022-10-30T15:13:27.298Z,17.9
2022-10-30T15:14:32.474Z,17.9
2022-10-30T15:15:38.688Z,17.8
2022-10-30T15:16:44.883Z,17.8
2022-10-30T15:17:50.985Z,17.7
2022-10-30T15:18:57.154Z,17.7
2022-10-30T15:20:03.351Z,17.6
2022-10-30T15:21:09.515Z,17.6
2022-10-30T15:22:14.681Z,17.5
2022-10-30T15:23:19.913Z,17.4
2022-10-30T15:24:25.061Z,17.4
2022-10-30T15:25:30.277Z,17.3
2022-10-30T15:26:35.479Z,17.2
2022-10-30T15:27:40.660Z,17.2
2022-10-30T15:28:46.797Z,17.1
2022-10-30T15:29:52.978Z,17.1
2022-10-30T15:30:59.151Z,17.1
2022-10-30T15:32:05.321Z,17
2022-10-30T15:33:11.502Z,16.9
2022-10-30T15:34:17.657Z,16.9
2022-10-30T15:35:23.822Z,16.8
2022-10-30T15:36:30.011Z,16.8
2022-10-30T15:37:36.232Z,16.8
2022-10-30T15:38:42.339Z,16.7
2022-10-30T15:39:48.531Z,16.7
2022-10-30T15:40:54.676Z,16.7
2022-10-30T15:41:59.867Z,16.7
2022-10-30T15:43:06.038Z,16.6
2022-10-30T15:44:12.243Z,16.5
2022-10-30T15:45:18.412Z,16.5
2022-10-30T15:46:24.529Z,16.4
2022-10-30T15:47:30.700Z,16.3
2022-10-30T15:48:36.872Z,16.3
2022-10-30T15:49:42.078Z,16.2
2022-10-30T15:50:47.278Z,16.1
2022-10-30T15:51:53.415Z,16
2022-10-30T15:52:58.623Z,16
2022-10-30T15:54:03.820Z,15.9
2022-10-30T15:55:09.984Z,15.8
2022-10-30T15:56:16.130Z,15.7
2022-10-30T15:57:22.365Z,15.6
2022-10-30T15:58:28.517Z,15.6
2022-10-30T15:59:34.641Z,15.6
2022-10-30T16:00:40.811Z,15.5
2022-10-30T16:01:47.086Z,15.5
2022-10-30T16:02:53.172Z,15.4
2022-10-30T16:03:59.337Z,15.3
2022-10-30T16:05:05.484Z,15.3
2022-10-30T16:06:11.700Z,15.2
2022-10-30T16:07:17.838Z,15.2
2022-10-30T16:08:23.060Z,15.1
2022-10-30T16:09:29.185Z,15
2022-10-30T16:10:35.428Z,15
2022-10-30T16:11:41.555Z,14.9
2022-10-30T16:12:47.699Z,14.8
2022-10-30T16:13:53.877Z,14.7
2022-10-30T16:15:00.048Z,14.7
2022-10-30T16:16:05.252Z,14.6
2022-10-30T16:17:10.426Z,14.6
2022-10-30T16:18:15.666Z,14.6
2022-10-30T16:19:20.812Z,14.5
2022-10-30T16:20:26.962Z,14.4
2022-10-30T16:21:33.135Z,14.3
2022-10-30T16:22:39.328Z,14.3
2022-10-30T16:23:45.485Z,14.2
2022-10-30T16:24:51.677Z,14.2
2022-10-30T16:25:57.828Z,14.2
2022-10-30T16:27:04.029Z,14.2
2022-10-30T16:28:10.163Z,14.1
2022-10-30T16:29:16.330Z,14.1
2022-10-30T16:30:22.493Z,14
2022-10-30T16:31:28.673Z,14
2022-10-30T16:32:34.916Z,13.9
2022-10-30T16:33:40.068Z,13.9
2022-10-30T16:34:46.235Z,13.8
2022-10-30T16:35:52.406Z,13.8
2022-10-30T16:36:58.536Z,13.8
2022-10-30T16:38:04.722Z,13.7
2022-10-30T16:39:10.866Z,13.7
2022-10-30T16:40:17.031Z,13.6
2022-10-30T16:41:22.251Z,13.6
2022-10-30T16:42:27.415Z,13.5
2022-10-30T16:43:32.614Z,13.5
2022-10-30T16:44:37.800Z,13.5
2022-10-30T16:45:44.002Z,13.5
2022-10-30T16:46:50.128Z,13.4
2022-10-30T16:47:56.312Z,13.4
2022-10-30T16:49:02.481Z,13.3
2022-10-30T16:50:08.646Z,13.3
2022-10-30T16:51:14.908Z,13.3
2022-10-30T16:52:20.993Z,13.2
2022-10-30T16:53:27.190Z,13.2
2022-10-30T16:54:33.325Z,13.1
2022-10-30T16:55:39.522Z,13.1
2022-10-30T16:56:45.706Z,13.1
2022-10-30T16:57:51.898Z,13
2022-10-30T16:58:57.051Z,13
2022-10-30T17:00:03.194Z,13
2022-10-30T17:02:15.538Z,12.9
2022-10-30T17:03:21.750Z,12.9
2022-10-30T17:04:27.876Z,12.8
2022-10-30T17:05:34.084Z,12.8
2022-10-30T17:06:40.216Z,12.7
2022-10-30T17:07:45.399Z,12.7
2022-10-30T17:08:50.682Z,12.7
2022-10-30T17:09:56.753Z,12.7
2022-10-30T17:11:02.931Z,12.7
2022-10-30T17:12:08.129Z,12.7
2022-10-30T17:13:13.324Z,12.6
2022-10-30T17:14:19.490Z,12.6
2022-10-30T17:15:25.649Z,12.6
2022-10-30T17:16:31.830Z,12.6
2022-10-30T17:18:44.149Z,12.5
2022-10-30T17:19:50.426Z,12.5
2022-10-30T17:20:56.485Z,12.5
2022-10-30T17:22:02.660Z,12.5
2022-10-30T17:23:08.854Z,12.5
2022-10-30T17:24:15.033Z,12.5
2022-10-30T17:25:21.197Z,12.4
2022-10-30T17:26:27.343Z,12.4
2022-10-30T17:27:32.539Z,12.5
2022-10-30T17:28:38.712Z,12.4
2022-10-30T17:29:43.892Z,12.4
2022-10-30T17:30:50.051Z,12.4
2022-10-30T17:31:56.226Z,12.3
2022-10-30T17:33:02.396Z,12.3
2022-10-30T17:34:08.567Z,12.3
2022-10-30T17:35:14.748Z,12.2
2022-10-30T17:36:19.988Z,12.2
2022-10-30T17:37:25.120Z,12.2
2022-10-30T17:38:30.331Z,12.2
2022-10-30T17:39:35.517Z,12.2
2022-10-30T17:40:41.669Z,12.2
2022-10-30T17:41:47.902Z,12.2
2022-10-30T17:42:54.010Z,12.2
2022-10-30T17:44:00.184Z,12.2
2022-10-30T17:45:06.396Z,12.1
2022-10-30T17:46:12.512Z,12
2022-10-30T17:47:18.748Z,12
2022-10-30T17:48:24.896Z,12
2022-10-30T17:49:31.026Z,12
2022-10-30T17:50:37.213Z,12
2022-10-30T17:51:43.367Z,12
2022-10-30T17:52:49.590Z,12
2022-10-30T17:53:54.755Z,12
2022-10-30T17:55:00.895Z,11.9
2022-10-30T17:56:07.111Z,11.9
2022-10-30T17:57:13.243Z,11.9
2022-10-30T17:58:19.402Z,11.8
2022-10-30T17:59:25.580Z,11.8
2022-10-30T18:00:31.744Z,11.8
2022-10-30T18:01:36.943Z,11.7
2022-10-30T18:02:42.118Z,11.8
2022-10-30T18:03:47.358Z,11.8
2022-10-30T18:04:52.507Z,11.8
2022-10-30T18:05:58.683Z,11.8
2022-10-30T18:07:04.830Z,11.8
2022-10-30T18:08:11.010Z,11.8
2022-10-30T18:09:17.187Z,11.8
2022-10-30T18:10:23.361Z,11.8
2022-10-30T18:11:29.536Z,11.8
2022-10-30T18:12:35.729Z,11.8
2022-10-30T18:13:41.852Z,11.7
2022-10-30T18:14:48.079Z,11.7
2022-10-30T18:15:54.187Z,11.7
2022-10-30T18:17:00.367Z,11.7
2022-10-30T18:18:06.551Z,11.7
2022-10-30T18:19:11.718Z,11.7
2022-10-30T18:20:17.895Z,11.6
2022-10-30T18:21:24.063Z,11.6
2022-10-30T18:22:30.224Z,11.6
2022-10-30T18:23:36.408Z,11.6
2022-10-30T18:24:42.567Z,11.6
2022-10-30T18:25:48.771Z,11.6
2022-10-30T18:26:53.964Z,11.6
2022-10-30T18:27:59.130Z,11.6
2022-10-30T18:29:05.304Z,11.6
2022-10-30T18:30:11.483Z,11.5
2022-10-30T18:31:17.626Z,11.5
2022-10-30T18:32:23.821Z,11.5
2022-10-30T18:33:29.982Z,11.5
2022-10-30T18:34:36.138Z,11.5
2022-10-30T18:35:42.307Z,11.5
2022-10-30T18:36:48.492Z,11.5
2022-10-30T18:37:54.654Z,11.4
2022-10-30T18:39:00.826Z,11.4
2022-10-30T18:40:06.999Z,11.4
2022-10-30T18:41:13.152Z,11.4
2022-10-30T18:42:18.380Z,11.4
2022-10-30T18:43:24.508Z,11.4
2022-10-30T18:44:30.690Z,11.4
2022-10-30T18:45:36.912Z,11.3
2022-10-30T18:46:43.037Z,11.3
2022-10-30T18:47:49.200Z,11.3
2022-10-30T18:48:55.366Z,11.3
2022-10-30T18:50:00.558Z,11.3
2022-10-30T18:51:05.739Z,11.3
2022-10-30T18:52:10.958Z,11.2
2022-10-30T18:53:16.242Z,11.2
2022-10-30T18:54:22.314Z,11.2
2022-10-30T18:55:27.509Z,11.2
2022-10-30T18:56:32.677Z,11.2
2022-10-30T18:57:38.859Z,11.1
2022-10-30T18:58:45.031Z,11.1
2022-10-30T18:59:51.187Z,11.1
2022-10-30T19:00:57.362Z,11.1
2022-10-30T19:02:03.536Z,11.1
2022-10-30T19:03:09.716Z,11.1
2022-10-30T19:04:15.881Z,11.1
2022-10-30T19:05:22.034Z,11.1
2022-10-30T19:06:28.305Z,11.1
2022-10-30T19:07:34.413Z,11.1
2022-10-30T19:08:40.544Z,11.1
2022-10-30T19:09:46.712Z,11.1
2022-10-30T19:10:51.918Z,11
2022-10-30T19:11:58.165Z,11
2022-10-30T19:13:04.249Z,11
2022-10-30T19:14:10.413Z,11
2022-10-30T19:15:16.581Z,11
2022-10-30T19:16:22.793Z,11
2022-10-30T19:17:28.911Z,11
2022-10-30T19:18:34.130Z,11
2022-10-30T19:19:39.306Z,11
2022-10-30T19:20:44.536Z,11
2022-10-30T19:21:49.709Z,11
2022-10-30T19:22:55.852Z,10.9
2022-10-30T19:24:02.130Z,10.9
2022-10-30T19:25:08.216Z,10.9
2022-10-30T19:26:14.374Z,10.9
2022-10-30T19:27:20.590Z,10.9
2022-10-30T19:28:26.714Z,10.9
2022-10-30T19:29:32.866Z,10.9
2022-10-30T19:30:39.053Z,10.9
2022-10-30T19:31:45.215Z,10.9
2022-10-30T19:32:51.374Z,10.9
2022-10-30T19:33:57.558Z,10.9
2022-10-30T19:35:03.718Z,10.9
2022-10-30T19:36:08.933Z,10.9
2022-10-30T19:37:15.074Z,10.9
2022-10-30T19:38:21.241Z,10.9
2022-10-30T19:39:27.427Z,10.9
2022-10-30T19:40:33.583Z,10.9
2022-10-30T19:41:39.755Z,10.9
2022-10-30T19:42:45.924Z,10.9
2022-10-30T19:43:51.129Z,10.9
2022-10-30T19:44:56.317Z,10.8
2022-10-30T19:46:01.499Z,10.8
2022-10-30T19:47:06.688Z,10.8
2022-10-30T19:48:12.869Z,10.8
2022-10-30T19:49:19.020Z,10.8
2022-10-30T19:50:25.197Z,10.8
2022-10-30T19:51:31.359Z,10.8
2022-10-30T19:52:37.537Z,10.8
2022-10-30T19:53:43.714Z,10.8
2022-10-30T19:54:49.883Z,10.8
2022-10-30T19:55:56.039Z,10.8
2022-10-30T19:58:08.411Z,10.8
2022-10-30T19:59:14.549Z,10.8
2022-10-30T20:00:20.729Z,10.8
2022-10-30T20:01:25.901Z,10.8
2022-10-30T20:02:32.095Z,10.8
2022-10-30T20:03:38.275Z,10.8
2022-10-30T20:04:44.409Z,10.8
2022-10-30T20:05:50.590Z,10.8
2022-10-30T20:06:56.788Z,10.8
2022-10-30T20:08:02.946Z,10.8
2022-10-30T20:09:09.107Z,10.8
2022-10-30T20:10:14.300Z,10.8
2022-10-30T20:11:19.489Z,10.8
2022-10-30T20:12:24.680Z,10.8
2022-10-30T20:13:29.872Z,10.8
2022-10-30T20:14:36.033Z,10.8
2022-10-30T20:15:42.200Z,10.7
2022-10-30T20:16:48.369Z,10.7
2022-10-30T20:17:54.552Z,10.7
2022-10-30T20:19:00.709Z,10.7
2022-10-30T20:20:06.905Z,10.7
2022-10-30T20:21:13.058Z,10.7
2022-10-30T20:22:19.230Z,10.7
2022-10-30T20:23:25.387Z,10.6
2022-10-30T20:24:31.559Z,10.6
2022-10-30T20:25:37.789Z,10.6
2022-10-30T20:26:43.904Z,10.6
2022-10-30T20:27:49.077Z,10.6
2022-10-30T20:28:55.251Z,10.5
2022-10-30T20:30:01.431Z,10.6
2022-10-30T20:31:07.680Z,10.5
2022-10-30T20:32:13.753Z,10.5
2022-10-30T20:33:19.939Z,10.5
2022-10-30T20:34:26.089Z,10.5
2022-10-30T20:35:31.327Z,10.5
2022-10-30T20:36:36.514Z,10.5
2022-10-30T20:37:41.681Z,10.5
2022-10-30T20:38:46.884Z,10.5
2022-10-30T20:39:53.028Z,10.4
2022-10-30T20:40:59.196Z,10.4
2022-10-30T20:42:05.381Z,10.4
2022-10-30T20:43:11.549Z,10.4
2022-10-30T20:44:17.731Z,10.4
2022-10-30T20:45:23.879Z,10.4
2022-10-30T20:46:30.058Z,10.4
2022-10-30T20:47:36.219Z,10.4
2022-10-30T20:48:42.405Z,10.4
2022-10-30T20:49:48.592Z,10.4
2022-10-30T20:50:54.736Z,10.3
2022-10-30T20:52:00.917Z,10.3
2022-10-30T20:53:06.106Z,10.3
2022-10-30T20:54:12.256Z,10.3
2022-10-30T20:55:18.524Z,10.3
2022-10-30T20:56:24.591Z,10.3
2022-10-30T20:57:30.769Z,10.3
2022-10-30T20:58:36.944Z,10.3
2022-10-30T20:59:43.118Z,10.3
2022-10-30T21:00:48.292Z,10.3
2022-10-30T21:01:53.503Z,10.2
2022-10-30T21:02:59.664Z,10.2
2022-10-30T21:04:04.888Z,10.2
2022-10-30T21:05:10.037Z,10.2
2022-10-30T21:06:16.228Z,10.2
2022-10-30T21:07:22.399Z,10.2
2022-10-30T21:08:28.550Z,10.2
2022-10-30T21:09:34.753Z,10.2
2022-10-30T21:10:40.065Z,10.2
2022-10-30T21:11:46.224Z,10.2
2022-10-30T21:12:52.399Z,10.2
2022-10-30T21:13:58.572Z,10.2
2022-10-30T21:15:04.615Z,10.2
2022-10-30T21:16:10.901Z,10.2
2022-10-30T21:17:17.072Z,10.2
2022-10-30T21:18:23.198Z,10.2
2022-10-30T21:19:29.414Z,10.2
2022-10-30T21:20:35.421Z,10.2
2022-10-30T21:21:41.596Z,10.2
2022-10-30T21:22:47.913Z,10.2
2022-10-30T21:23:54.079Z,10.2
2022-10-30T21:24:59.200Z,10.2
2022-10-30T21:26:05.297Z,10.1
2022-10-30T21:27:10.645Z,10.2
2022-10-30T21:28:15.823Z,10.2
2022-10-30T21:29:20.988Z,10.2
2022-10-30T21:30:26.193Z,10.1
2022-10-30T21:31:32.249Z,10.1
2022-10-30T21:32:38.518Z,10.1
2022-10-30T21:33:44.721Z,10.1
2022-10-30T21:34:50.745Z,10.1
2022-10-30T21:35:57.072Z,10.1
2022-10-30T21:37:03.240Z,10.1
2022-10-30T21:38:09.325Z,10.1
2022-10-30T21:39:15.571Z,10.1
2022-10-30T21:40:21.726Z,10
2022-10-30T21:41:27.805Z,10
2022-10-30T21:42:34.074Z,10
2022-10-30T21:43:40.218Z,10
2022-10-30T21:44:45.409Z,10
2022-10-30T21:45:51.540Z,10
2022-10-30T21:46:57.658Z,10
2022-10-30T21:48:03.883Z,10
2022-10-30T21:49:10.102Z,10
2022-10-30T21:50:16.216Z,10
2022-10-30T21:51:22.433Z,10
2022-10-30T21:52:27.543Z,10
2022-10-30T21:53:32.690Z,10
2022-10-30T21:54:37.986Z,9.9
2022-10-30T21:55:43.098Z,9.9
2022-10-30T21:56:49.283Z,9.9
2022-10-30T21:57:55.509Z,9.9
2022-10-30T21:59:01.644Z,9.9
2022-10-30T22:00:07.852Z,9.9
2022-10-30T22:01:13.959Z,9.9
2022-10-30T22:02:20.176Z,9.9
2022-10-30T22:03:26.328Z,9.8
2022-10-30T22:04:32.416Z,9.8
2022-10-30T22:05:38.640Z,9.8
2022-10-30T22:06:44.862Z,9.8
2022-10-30T22:07:50.922Z,9.8
2022-10-30T22:08:57.172Z,9.8
2022-10-30T22:10:02.323Z,9.8
2022-10-30T22:11:08.473Z,9.8
2022-10-30T22:12:14.688Z,9.8
2022-10-30T22:13:20.867Z,9.8
2022-10-30T22:14:27.088Z,9.8
2022-10-30T22:15:33.154Z,9.8
2022-10-30T22:16:39.375Z,9.7
2022-10-30T22:17:44.509Z,9.7
2022-10-30T22:18:49.767Z,9.7
2022-10-30T22:19:54.893Z,9.7
2022-10-30T22:21:00.067Z,9.7
2022-10-30T22:22:06.266Z,9.7
2022-10-30T22:23:12.424Z,9.7
2022-10-30T22:24:18.623Z,9.7
2022-10-30T22:25:24.803Z,9.7
2022-10-30T22:26:30.951Z,9.7
2022-10-30T22:27:37.142Z,9.7
2022-10-30T22:28:43.247Z,9.7
2022-10-30T22:29:49.424Z,9.7
2022-10-30T22:30:55.658Z,9.7
2022-10-30T22:32:01.843Z,9.7
2022-10-30T22:33:07.981Z,9.7
2022-10-30T22:34:14.159Z,9.7
2022-10-30T22:35:19.381Z,9.7
2022-10-30T22:36:25.457Z,9.7
2022-10-30T22:37:31.680Z,9.6
2022-10-30T22:38:37.846Z,9.6
2022-10-30T22:39:43.995Z,9.6
2022-10-30T22:40:50.158Z,9.6
2022-10-30T22:41:56.401Z,9.6
2022-10-30T22:43:01.597Z,9.6
2022-10-30T22:44:06.783Z,9.6
2022-10-30T22:45:11.951Z,9.6
2022-10-30T22:46:17.154Z,9.6
2022-10-30T22:47:23.346Z,9.6
2022-10-30T22:48:29.417Z,9.6
2022-10-30T22:49:35.628Z,9.6
2022-10-30T22:50:41.809Z,9.6
2022-10-30T22:51:48.047Z,9.6
2022-10-30T22:52:54.150Z,9.6
2022-10-30T22:54:00.331Z,9.6
2022-10-30T22:55:06.444Z,9.6
2022-10-30T22:56:12.601Z,9.6
2022-10-30T22:57:18.772Z,9.6
2022-10-30T22:58:24.928Z,9.5
2022-10-30T22:59:31.227Z,9.6
2022-10-30T23:00:36.290Z,9.5
2022-10-30T23:01:42.502Z,9.5
2022-10-30T23:02:48.702Z,9.5
2022-10-30T23:03:54.846Z,9.5
2022-10-30T23:05:01.000Z,9.5
2022-10-30T23:06:07.217Z,9.5
2022-10-30T23:07:13.355Z,9.5
2022-10-30T23:08:18.512Z,9.5
2022-10-30T23:09:23.719Z,9.5
2022-10-30T23:10:28.931Z,9.6
2022-10-30T23:11:34.069Z,9.5
2022-10-30T23:12:40.307Z,9.5
2022-10-30T23:13:46.513Z,9.5
2022-10-30T23:14:52.667Z,9.5
2022-10-30T23:15:58.855Z,9.5
2022-10-30T23:17:05.005Z,9.5
2022-10-30T23:18:11.201Z,9.5
2022-10-30T23:19:17.355Z,9.5
2022-10-30T23:20:23.531Z,9.5
2022-10-30T23:21:29.635Z,9.5
2022-10-30T23:22:35.863Z,9.5
2022-10-30T23:23:41.980Z,9.5
2022-10-30T23:24:48.169Z,9.5
2022-10-30T23:25:53.296Z,9.4
2022-10-30T23:26:59.521Z,9.4
2022-10-30T23:28:05.639Z,9.4
2022-10-30T23:29:11.888Z,9.4
2022-10-30T23:30:17.970Z,9.4
2022-10-30T23:31:24.172Z,9.4
2022-10-30T23:32:30.328Z,9.4
2022-10-30T23:33:35.494Z,9.4
2022-10-30T23:34:40.769Z,9.4
2022-10-30T23:35:45.891Z,9.4
2022-10-30T23:36:51.078Z,9.4
2022-10-30T23:37:57.240Z,9.4
2022-10-30T23:39:03.532Z,9.4
2022-10-30T23:40:09.651Z,9.4
2022-10-30T23:41:15.798Z,9.4
2022-10-30T23:42:21.972Z,9.4
2022-10-30T23:43:28.100Z,9.4
2022-10-30T23:44:34.313Z,9.4
2022-10-30T23:45:40.422Z,9.3
2022-10-30T23:46:46.676Z,9.3
2022-10-30T23:47:52.753Z,9.3
2022-10-30T23:48:58.944Z,9.3
2022-10-30T23:50:05.148Z,9.4
2022-10-30T23:51:10.287Z,9.3
2022-10-30T23:52:16.460Z,9.4
2022-10-30T23:53:22.634Z,9.4
2022-10-30T23:54:28.900Z,9.4
2022-10-30T23:55:34.999Z,9.4
2022-10-30T23:56:41.160Z,9.4
2022-10-30T23:57:47.330Z,9.4
2022-10-30T23:58:52.536Z,9.4
2022-10-30T23:59:57.782Z,9.4
